Time;durP1;ratioP1;P1;durP2;ratioP2;P2;SDS_P1;SDS_P2;PMS_P1;PMS_P2;Temp;Humidity;BMP_temperature;BMP_pressure;BME280_temperature;BME280_humidity;BME280_pressure;Samples;Min_cycle;Max_cycle;Signal;HPM_P1;HPM_P2
2023/10/13 00:00:40;;;;;;;12.18;7.47;;;;;;;19.33;100.00;101116.09;5251607;28;20059;-75
2023/10/13 00:03:15;;;;;;;11.07;7.18;;;;;;;19.30;100.00;101111.94;5267712;28;20036;-74
2023/10/13 00:05:47;;;;;;;10.43;7.13;;;;;;;19.30;100.00;101111.13;5270368;28;20028;-75
2023/10/13 00:08:20;;;;;;;11.20;6.68;;;;;;;19.29;100.00;101107.66;5273194;28;20044;-76
2023/10/13 00:10:52;;;;;;;12.10;7.35;;;;;;;19.30;100.00;101106.63;5269831;28;20024;-75
2023/10/13 00:13:24;;;;;;;10.43;7.00;;;;;;;19.32;100.00;101104.63;5259427;28;20040;-75
2023/10/13 00:18:33;;;;;;;10.93;7.40;;;;;;;19.32;100.00;101098.47;5267360;28;20128;-75
2023/10/13 00:21:31;;;;;;;10.20;7.07;;;;;;;19.24;100.00;101086.09;5268777;28;20489;-75
2023/10/13 00:24:06;;;;;;;10.55;6.88;;;;;;;19.27;100.00;101090.22;5271529;28;20032;-75
2023/10/13 00:26:37;;;;;;;9.98;6.82;;;;;;;19.24;100.00;101099.38;5250173;28;20409;-75
2023/10/13 00:29:16;;;;;;;9.73;6.93;;;;;;;19.19;100.00;101088.47;5258596;28;20044;-75
2023/10/13 00:31:48;;;;;;;11.10;6.43;;;;;;;19.15;100.00;101080.03;5271084;28;20032;-75
2023/10/13 00:34:25;;;;;;;9.23;6.45;;;;;;;19.19;100.00;101081.31;5269292;28;20326;-74
2023/10/13 00:37:16;;;;;;;8.15;6.75;;;;;;;19.14;100.00;101082.88;5269865;28;20039;-75
2023/10/13 00:39:47;;;;;;;9.88;6.30;;;;;;;19.15;100.00;101080.03;5267954;28;20388;-75
2023/10/13 00:42:23;;;;;;;9.73;6.45;;;;;;;19.13;100.00;101076.75;5258736;28;20037;-74
2023/10/13 00:44:55;;;;;;;8.48;6.30;;;;;;;19.12;100.00;101068.94;5270311;28;20392;-75
2023/10/13 00:48:01;;;;;;;9.18;5.75;;;;;;;19.11;100.00;101072.63;5269564;28;20041;-75
2023/10/13 00:50:25;;;;;;;8.13;6.40;;;;;;;19.07;100.00;101066.84;5263402;28;20045;-74
2023/10/13 00:52:56;;;;;;;10.10;6.32;;;;;;;19.12;100.00;101060.97;5258460;28;20056;-74
2023/10/13 00:55:33;;;;;;;9.43;6.03;;;;;;;19.04;100.00;101058.41;5268233;28;20139;-75
2023/10/13 00:58:07;;;;;;;8.02;5.63;;;;;;;19.05;100.00;101058.22;5269654;28;20028;-75
2023/10/13 01:00:48;;;;;;;8.82;6.55;;;;;;;18.97;100.00;101042.38;5258214;28;20032;-76
2023/10/13 01:03:25;;;;;;;8.95;5.47;;;;;;;19.08;100.00;101051.72;5265270;28;20487;-74
2023/10/13 01:05:58;;;;;;;9.70;5.93;;;;;;;19.06;100.00;101048.44;5268767;28;20036;-76
2023/10/13 01:08:34;;;;;;;9.63;6.32;;;;;;;19.08;100.00;101049.06;5269484;28;20040;-75
2023/10/13 01:11:07;;;;;;;8.13;5.18;;;;;;;19.02;100.00;101039.19;5268115;28;20047;-75
2023/10/13 01:13:41;;;;;;;10.57;5.90;;;;;;;19.07;100.00;101040.28;5267562;28;20488;-74
2023/10/13 01:16:13;;;;;;;7.63;5.38;;;;;;;19.13;100.00;101036.06;5266435;28;20393;-74
2023/10/13 01:18:48;;;;;;;8.40;5.53;;;;;;;19.09;100.00;101025.00;5268766;28;20021;-75
2023/10/13 01:21:20;;;;;;;7.18;5.40;;;;;;;19.06;100.00;101019.25;5268125;28;20033;-75
2023/10/13 01:23:52;;;;;;;8.88;5.38;;;;;;;18.98;100.00;101001.56;5258042;28;20045;-76
2023/10/13 01:26:24;;;;;;;9.73;5.23;;;;;;;19.06;100.00;101017.41;5268594;28;20033;-74
2023/10/13 01:28:59;;;;;;;8.60;5.13;;;;;;;19.15;100.00;101013.66;5264002;28;20036;-75
2023/10/13 01:31:37;;;;;;;7.35;4.78;;;;;;;19.04;100.00;101007.97;5265696;28;20036;-74
2023/10/13 01:34:09;;;;;;;7.47;4.68;;;;;;;19.14;100.00;101006.69;5268845;28;20028;-76
2023/10/13 01:36:41;;;;;;;9.68;5.20;;;;;;;19.13;100.00;100998.88;5266253;28;20035;-75
2023/10/13 01:39:16;;;;;;;7.87;4.77;;;;;;;19.23;100.00;100995.97;5265986;28;20042;-76
2023/10/13 01:41:55;;;;;;;7.05;4.85;;;;;;;19.04;100.00;100992.84;5255665;28;20064;-74
2023/10/13 01:44:30;;;;;;;7.45;4.18;;;;;;;19.00;100.00;100991.56;5247669;23;20426;-75
2023/10/13 01:47:09;;;;;;;6.78;4.78;;;;;;;19.01;100.00;100984.41;5238665;28;20040;-75
2023/10/13 01:49:50;;;;;;;9.27;5.15;;;;;;;18.99;100.00;100981.97;5231391;28;20096;-74
2023/10/13 01:52:24;;;;;;;7.90;5.28;;;;;;;19.01;100.00;100979.09;5235534;28;20032;-74
2023/10/13 01:55:00;;;;;;;7.75;5.18;;;;;;;18.99;100.00;100966.03;5238569;28;20044;-75
2023/10/13 01:57:32;;;;;;;10.65;5.10;;;;;;;19.05;100.00;100969.78;5238820;28;20026;-75
2023/10/13 02:00:18;;;;;;;11.98;5.80;;;;;;;19.08;100.00;100964.91;5236265;28;20040;-74
2023/10/13 02:02:50;;;;;;;7.97;5.25;;;;;;;19.14;100.00;100958.06;5229207;28;20056;-74
2023/10/13 02:05:27;;;;;;;7.93;5.32;;;;;;;19.13;100.00;100959.91;5236239;28;20390;-74
2023/10/13 02:08:07;;;;;;;8.85;5.70;;;;;;;18.95;100.00;100951.47;5237285;28;20053;-74
2023/10/13 02:10:43;;;;;;;7.22;6.15;;;;;;;18.96;100.00;100945.97;5237398;28;20394;-75
2023/10/13 02:13:17;;;;;;;11.95;5.93;;;;;;;18.96;100.00;100942.50;5236503;28;20040;-75
2023/10/13 02:15:53;;;;;;;7.70;5.97;;;;;;;18.94;100.00;100944.50;5236793;28;20029;-74
2023/10/13 02:18:27;;;;;;;7.70;6.22;;;;;;;18.96;100.00;100950.44;5234660;28;20410;-76
2023/10/13 02:21:12;;;;;;;8.20;6.03;;;;;;;19.06;100.00;100950.19;5235906;28;20038;-76
2023/10/13 02:23:45;;;;;;;10.88;7.05;;;;;;;19.05;100.00;100943.22;5237853;28;20025;-74
2023/10/13 02:26:30;;;;;;;9.43;6.28;;;;;;;18.98;100.00;100943.16;5238355;28;20040;-75
2023/10/13 02:29:07;;;;;;;10.95;7.22;;;;;;;18.93;100.00;100935.69;5238515;28;20033;-74
2023/10/13 02:31:42;;;;;;;9.80;7.38;;;;;;;18.97;100.00;100925.53;5225203;28;20033;-75
2023/10/13 02:34:14;;;;;;;11.63;7.82;;;;;;;19.00;100.00;100935.81;5236446;28;20390;-74
2023/10/13 02:36:48;;;;;;;10.20;7.97;;;;;;;19.02;100.00;100923.19;5236712;28;20429;-75
2023/10/13 02:39:25;;;;;;;13.30;8.45;;;;;;;19.02;100.00;100922.38;5235833;28;20049;-74
2023/10/13 02:41:58;;;;;;;10.48;8.65;;;;;;;19.05;100.00;100917.47;5237421;28;20394;-76
2023/10/13 02:44:36;;;;;;;10.20;8.57;;;;;;;19.11;100.00;100900.81;5236059;28;20057;-74
2023/10/13 02:47:13;;;;;;;13.10;9.20;;;;;;;19.13;100.00;100892.66;5234803;28;20033;-74
2023/10/13 02:49:47;;;;;;;14.10;10.55;;;;;;;19.13;100.00;100890.84;5238012;28;20025;-76
2023/10/13 02:52:20;;;;;;;12.10;10.07;;;;;;;19.09;100.00;100881.63;5238268;28;20478;-76
2023/10/13 02:54:52;;;;;;;14.25;10.65;;;;;;;19.12;100.00;100877.75;5237012;28;20036;-74
2023/10/13 02:57:24;;;;;;;12.93;11.15;;;;;;;19.11;100.00;100874.25;5236548;28;20025;-75
2023/10/13 03:00:11;;;;;;;14.03;11.13;;;;;;;19.11;100.00;100868.97;5237786;28;20051;-75
2023/10/13 03:02:58;;;;;;;14.07;10.90;;;;;;;19.07;100.00;100862.38;5234313;28;20311;-75
2023/10/13 03:05:35;;;;;;;16.98;11.85;;;;;;;19.14;100.00;100847.34;5235061;28;20541;-75
2023/10/13 03:08:09;;;;;;;15.77;12.30;;;;;;;19.07;100.00;100841.13;5236643;28;20034;-75
2023/10/13 03:10:47;;;;;;;14.57;11.75;;;;;;;19.07;100.00;100835.81;5238357;28;20037;-75
2023/10/13 03:13:18;;;;;;;14.77;11.13;;;;;;;19.12;100.00;100835.25;5237117;28;20481;-74
2023/10/13 03:15:50;;;;;;;13.63;11.63;;;;;;;19.14;100.00;100839.38;5235923;28;20037;-75
2023/10/13 03:18:22;;;;;;;16.95;11.73;;;;;;;19.16;100.00;100828.56;5238616;28;20108;-75
2023/10/13 03:20:59;;;;;;;14.60;12.90;;;;;;;19.20;100.00;100825.34;5241342;28;20033;-75
2023/10/13 03:23:45;;;;;;;16.90;12.88;;;;;;;19.19;100.00;100821.03;5239966;28;20025;-75
2023/10/13 03:26:19;;;;;;;13.30;11.90;;;;;;;19.17;100.00;100809.78;5243892;28;20486;-75
2023/10/13 03:28:52;;;;;;;18.63;13.63;;;;;;;19.22;100.00;100805.75;5242127;28;20029;-75
2023/10/13 03:31:28;;;;;;;19.08;13.25;;;;;;;19.28;100.00;100797.88;5241169;28;20021;-75
2023/10/13 03:34:00;;;;;;;14.90;12.95;;;;;;;19.28;100.00;100797.88;5241165;28;20781;-75
2023/10/13 03:39:29;;;;;;;20.52;14.30;;;;;;;19.30;100.00;100789.69;5237482;28;20045;-75
2023/10/13 03:42:05;;;;;;;19.48;14.05;;;;;;;19.34;100.00;100775.84;5241656;28;20033;-75
2023/10/13 03:44:38;;;;;;;16.92;13.98;;;;;;;19.36;100.00;100775.66;5241941;28;20064;-75
2023/10/13 03:47:18;;;;;;;17.27;14.95;;;;;;;19.36;100.00;100767.69;5256886;28;20028;-75
2023/10/13 03:49:51;;;;;;;18.55;15.48;;;;;;;19.39;100.00;100769.94;5261688;28;20037;-75
2023/10/13 03:52:25;;;;;;;17.83;14.82;;;;;;;19.42;100.00;100764.25;5245284;28;20490;-75
2023/10/13 03:54:58;;;;;;;17.25;14.75;;;;;;;19.41;100.00;100754.66;5241475;28;20482;-75
2023/10/13 03:57:33;;;;;;;18.60;14.48;;;;;;;19.38;100.00;100763.81;5260988;28;20024;-75
2023/10/13 04:00:09;;;;;;;24.20;15.15;;;;;;;19.42;100.00;100748.31;5259070;28;20033;-75
2023/10/13 04:02:45;;;;;;;16.58;14.15;;;;;;;19.43;100.00;100742.00;5263938;28;20041;-75
2023/10/13 04:05:34;;;;;;;16.67;13.00;;;;;;;19.51;100.00;100731.25;5261752;28;20033;-74
2023/10/13 04:32:47;;;;;;;15.95;11.88;;;;;;;19.63;100.00;100723.63;5257898;28;20379;-75
2023/10/13 04:35:20;;;;;;;15.00;11.48;;;;;;;19.63;100.00;100711.16;5259365;28;20040;-75
2023/10/13 04:38:01;;;;;;;;;;;;;;;20.36;100.00;100719.56;5245081;28;20497;-75
2023/10/13 04:40:35;;;;;;;14.38;10.75;;;;;;;19.73;100.00;100712.63;5240103;28;19916;-74
2023/10/13 04:46:14;;;;;;;12.88;10.05;;;;;;;19.75;100.00;100705.28;5258951;28;20482;-74
2023/10/13 04:48:47;;;;;;;12.90;10.00;;;;;;;19.83;100.00;100702.50;5257507;28;20032;-74
2023/10/13 04:51:34;;;;;;;12.88;9.70;;;;;;;19.87;100.00;100709.88;5260777;28;20402;-74
2023/10/13 04:54:12;;;;;;;11.20;9.02;;;;;;;19.78;100.00;100697.75;5259057;28;20041;-74
2023/10/13 04:57:20;;;;;;;12.82;9.15;;;;;;;19.87;100.00;100707.22;5261268;28;20505;-74
2023/10/13 05:48:05;;;;;;;7.47;5.05;;;;;;;19.82;100.00;100598.00;5257137;28;20418;-75
2023/10/13 06:29:53;;;;;;;8.73;5.40;;;;;;;19.82;100.00;100597.19;5253882;28;20041;-75
2023/10/13 06:32:28;;;;;;;13.13;6.05;;;;;;;19.79;100.00;100603.69;5257311;28;20021;-75
2023/10/13 06:35:07;;;;;;;9.20;5.72;;;;;;;19.79;100.00;100587.75;5253673;28;20036;-75
2023/10/13 06:37:41;;;;;;;12.25;5.68;;;;;;;19.88;100.00;100583.06;5252444;28;20046;-75
2023/10/13 06:40:25;;;;;;;11.73;6.00;;;;;;;19.74;100.00;100558.28;5255286;28;20035;-75
2023/10/13 06:43:13;;;;;;;10.60;5.10;;;;;;;19.86;100.00;100569.19;5252619;28;20037;-75
2023/10/13 06:45:56;;;;;;;10.02;5.32;;;;;;;19.86;100.00;100563.84;5255914;28;20043;-75
2023/10/13 06:48:34;;;;;;;11.10;5.45;;;;;;;19.88;100.00;100556.50;5255532;28;20052;-75
2023/10/13 06:51:17;;;;;;;6.13;5.13;;;;;;;19.85;100.00;100555.06;5253822;28;20389;-75
2023/10/13 06:53:54;;;;;;;11.05;5.25;;;;;;;19.88;100.00;100557.31;5255712;28;20033;-75
2023/10/13 06:56:28;;;;;;;11.77;4.85;;;;;;;19.87;100.00;100550.34;5237832;28;20041;-75
2023/10/13 06:59:04;;;;;;;;;;;;;;;20.61;100.00;100557.56;5255810;28;20025;-75
2023/10/13 07:01:38;;;;;;;15.75;5.72;;;;;;;19.92;100.00;100547.91;5254161;28;19939;-75
2023/10/13 07:04:13;;;;;;;11.27;5.50;;;;;;;19.91;100.00;100543.63;5252548;28;20033;-75
2023/10/13 07:06:48;;;;;;;10.63;5.80;;;;;;;19.90;100.00;100538.50;5256644;28;20024;-75
2023/10/13 07:12:16;;;;;;;11.68;6.25;;;;;;;19.92;100.00;100536.47;5256960;28;20052;-75
2023/10/13 07:14:52;;;;;;;11.43;5.40;;;;;;;19.93;100.00;100527.50;5256789;28;20478;-75
2023/10/13 07:17:24;;;;;;;13.40;5.45;;;;;;;19.91;100.00;100517.03;5259594;28;20032;-75
2023/10/13 07:20:06;;;;;;;14.07;6.47;;;;;;;20.01;100.00;100515.84;5255321;28;20036;-75
2023/10/13 07:22:39;;;;;;;14.20;5.82;;;;;;;19.86;100.00;100500.06;5255430;28;20044;-75
2023/10/13 07:25:23;;;;;;;14.00;6.30;;;;;;;19.97;100.00;100511.97;5258337;28;20020;-75
2023/10/13 07:27:56;;;;;;;10.85;5.35;;;;;;;20.09;100.00;100521.00;5253389;28;20024;-75
2023/10/13 07:30:30;;;;;;;12.90;5.72;;;;;;;20.06;100.00;100516.88;5258736;28;20159;-75
2023/10/13 07:33:05;;;;;;;13.30;5.72;;;;;;;20.07;100.00;100513.19;5256033;28;20040;-75
2023/10/13 07:35:37;;;;;;;9.77;5.38;;;;;;;20.07;100.00;100517.69;5253818;28;20036;-75
2023/10/13 07:38:09;;;;;;;12.98;5.47;;;;;;;20.12;100.00;100509.94;5254562;28;20027;-75
2023/10/13 07:40:41;;;;;;;13.60;5.23;;;;;;;20.19;100.00;100508.09;5254646;28;20034;-75
2023/10/13 07:43:13;;;;;;;11.50;5.57;;;;;;;20.32;100.00;100507.31;5256448;28;20301;-75
2023/10/13 07:45:50;;;;;;;11.37;5.40;;;;;;;20.35;100.00;100510.41;5255119;28;20373;-75
2023/10/13 07:48:23;;;;;;;16.08;5.40;;;;;;;20.34;100.00;100508.78;5258801;28;20056;-75
2023/10/13 07:51:27;;;;;;;11.55;5.75;;;;;;;20.46;100.00;100493.03;5257732;28;20025;-75
2023/10/13 07:54:06;;;;;;;12.18;5.45;;;;;;;20.42;100.00;100497.13;5259579;28;20051;-75
2023/10/13 07:56:39;;;;;;;11.75;5.53;;;;;;;20.32;100.00;100496.69;5258430;28;20500;-75
2023/10/13 07:59:12;;;;;;;14.07;6.22;;;;;;;20.36;100.00;100496.06;5262511;28;20381;-75
2023/10/13 08:01:45;;;;;;;14.93;5.53;;;;;;;20.39;100.00;100490.34;5263951;28;20027;-75
2023/10/13 08:04:28;;;;;;;14.73;5.50;;;;;;;20.45;100.00;100494.03;5265004;28;20457;-75
2023/10/13 08:07:12;;;;;;;14.23;5.97;;;;;;;20.52;100.00;100480.75;5263282;28;20047;-75
2023/10/13 08:09:51;;;;;;;15.20;5.45;;;;;;;20.57;100.00;100487.13;5263404;28;20049;-74
2023/10/13 08:12:23;;;;;;;13.13;5.97;;;;;;;20.64;100.00;100495.09;5266723;28;20032;-74
2023/10/13 08:15:12;;;;;;;18.48;7.38;;;;;;;20.67;100.00;100489.38;5265997;28;20037;-75
2023/10/13 08:17:44;;;;;;;17.33;6.75;;;;;;;20.73;100.00;100479.75;5266124;28;20020;-73
2023/10/13 08:20:17;;;;;;;10.65;6.53;;;;;;;20.80;100.00;100480.56;5260065;28;20474;-75
2023/10/13 08:22:49;;;;;;;12.70;6.30;;;;;;;20.89;100.00;100482.81;5260179;28;20116;-75
2023/10/13 08:25:24;;;;;;;13.35;5.75;;;;;;;20.95;100.00;100475.84;5259801;28;20556;-75
2023/10/13 08:28:46;;;;;;;11.25;5.55;;;;;;;20.99;100.00;100489.56;5256556;28;20645;-75
2023/10/13 08:31:14;;;;;;;11.70;5.43;;;;;;;21.19;100.00;100476.22;5269092;28;20029;-74
2023/10/13 08:33:46;;;;;;;11.40;5.55;;;;;;;21.06;100.00;100485.03;5268974;28;20039;-75
2023/10/13 08:36:27;;;;;;;8.73;5.13;;;;;;;21.14;100.00;100467.00;5269640;28;20029;-75
2023/10/13 08:39:15;;;;;;;8.75;5.43;;;;;;;21.20;100.00;100483.16;5271001;28;20052;-75
2023/10/13 08:42:52;;;;;;;13.18;5.63;;;;;;;21.21;100.00;100463.47;5268366;28;20032;-75
2023/10/13 08:44:52;;;;;;;13.23;6.07;;;;;;;21.22;100.00;100459.81;5259928;28;20534;-74
2023/10/13 08:47:35;;;;;;;11.35;5.72;;;;;;;21.22;100.00;100484.59;5249532;28;20502;-73
2023/10/13 08:50:31;;;;;;;9.75;5.13;;;;;;;21.26;100.00;100487.66;5265439;28;20496;-75
2023/10/13 08:53:09;;;;;;;12.45;6.03;;;;;;;21.24;100.00;100455.88;5261932;28;20052;-74
2023/10/13 08:56:01;;;;;;;11.60;5.60;;;;;;;21.26;100.00;100467.16;5265957;28;20037;-75
2023/10/13 09:12:25;;;;;;;10.10;5.68;;;;;;;21.59;100.00;100437.75;5266988;28;20426;-75
2023/10/13 09:14:57;;;;;;;14.45;5.90;;;;;;;21.61;100.00;100434.88;5262734;28;20394;-75
2023/10/13 09:25:38;;;;;;;14.18;5.63;;;;;;;21.70;100.00;100444.25;5264624;28;20044;-75
2023/10/13 09:28:18;;;;;;;9.07;5.25;;;;;;;21.79;100.00;100439.50;5260457;28;20029;-74
2023/10/13 09:30:56;;;;;;;10.27;5.35;;;;;;;21.70;100.00;100444.25;5264693;28;20048;-75
2023/10/13 09:33:32;;;;;;;17.60;5.65;;;;;;;21.71;100.00;100437.91;5267182;28;20041;-73
2023/10/13 09:36:07;;;;;;;9.68;5.07;;;;;;;21.74;100.00;100439.31;5266016;28;20032;-75
2023/10/13 09:38:40;;;;;;;12.90;4.90;;;;;;;21.68;100.00;100427.66;5258699;28;20028;-74
2023/10/13 09:41:18;;;;;;;15.52;6.45;;;;;;;21.73;100.00;100430.50;5259349;28;20028;-75
2023/10/13 09:43:52;;;;;;;12.82;5.68;;;;;;;21.88;100.00;100430.22;5257858;28;20045;-74
2023/10/13 09:46:28;;;;;;;9.93;4.95;;;;;;;21.90;100.00;100422.03;5262677;28;20028;-75
2023/10/13 09:49:33;;;;;;;13.30;5.53;;;;;;;22.01;100.00;100430.16;5259989;28;20390;-75
2023/10/13 09:52:07;;;;;;;12.90;5.13;;;;;;;21.91;100.00;100424.47;5259759;28;20044;-75
2023/10/13 09:54:44;;;;;;;17.45;5.78;;;;;;;21.90;100.00;100411.34;5261266;28;20044;-75
2023/10/13 09:57:24;;;;;;;13.75;5.43;;;;;;;22.12;100.00;100409.94;5260915;28;20021;-74
2023/10/13 10:00:06;;;;;;;14.85;5.63;;;;;;;22.29;100.00;100407.59;5261233;28;20033;-74
2023/10/13 10:02:44;;;;;;;12.93;5.22;;;;;;;22.31;100.00;100393.00;5258684;28;20051;-75
2023/10/13 10:05:25;;;;;;;11.50;5.35;;;;;;;22.61;100.00;100399.50;5261850;28;20390;-74
2023/10/13 10:08:01;;;;;;;14.55;5.53;;;;;;;22.43;100.00;100400.31;5257536;28;20675;-75
2023/10/13 10:10:59;;;;;;;14.77;5.70;;;;;;;22.73;100.00;100395.06;5257020;28;20445;-75
2023/10/13 10:13:58;;;;;;;11.18;5.20;;;;;;;22.83;100.00;100387.38;5260580;28;20043;-74
2023/10/13 10:16:46;;;;;;;10.00;5.30;;;;;;;22.73;100.00;100384.38;5260483;28;20355;-74
2023/10/13 10:19:18;;;;;;;17.90;5.57;;;;;;;22.53;100.00;100384.59;5262176;28;20033;-75
2023/10/13 10:22:05;;;;;;;12.50;5.73;;;;;;;22.75;100.00;100377.78;5262439;28;20032;-74
2023/10/13 10:24:38;;;;;;;14.27;5.35;;;;;;;22.54;100.00;100380.88;5259191;28;20039;-75
2023/10/13 10:27:14;;;;;;;13.25;4.93;;;;;;;22.57;100.00;100375.91;5261387;28;20039;-74
2023/10/13 10:29:56;;;;;;;11.93;5.78;;;;;;;22.79;100.00;100365.63;5264206;28;20045;-74
2023/10/13 10:32:41;;;;;;;15.03;5.93;;;;;;;22.71;100.00;100384.63;5259592;28;20052;-73
2023/10/13 10:35:20;;;;;;;9.38;5.50;;;;;;;22.63;100.00;100365.41;5262703;28;20041;-75
2023/10/13 10:37:56;;;;;;;14.07;5.90;;;;;;;22.69;100.00;100373.34;5262431;28;20430;-74
2023/10/13 10:40:46;;;;;;;13.13;5.80;;;;;;;22.79;100.00;100368.28;5262651;28;20036;-74
2023/10/13 10:43:21;;;;;;;14.43;5.93;;;;;;;22.66;100.00;100381.81;5265403;28;20063;-74
2023/10/13 10:45:59;;;;;;;14.73;6.32;;;;;;;22.74;100.00;100376.16;5263699;28;20040;-74
2023/10/13 10:48:34;;;;;;;19.50;7.07;;;;;;;22.67;100.00;100378.09;5265420;28;20041;-75
2023/10/13 10:51:21;;;;;;;11.43;5.40;;;;;;;22.72;100.00;100358.72;5266465;28;20033;-74
2023/10/13 10:53:53;;;;;;;11.85;5.95;;;;;;;22.69;100.00;100377.84;5266471;28;20028;-74
2023/10/13 10:56:36;;;;;;;13.07;5.82;;;;;;;22.66;100.00;100368.44;5246474;28;20041;-75
2023/10/13 10:59:18;;;;;;;17.23;5.68;;;;;;;22.73;100.00;100381.72;5263983;28;20471;-75
2023/10/13 11:01:52;;;;;;;11.32;5.75;;;;;;;22.70;100.00;100380.31;5266248;28;20474;-75
2023/10/13 11:04:28;;;;;;;10.30;4.95;;;;;;;22.74;100.00;100372.69;5262551;28;20029;-75
2023/10/13 11:06:59;;;;;;;12.65;5.88;;;;;;;22.87;100.00;100380.53;5263108;28;20040;-75
2023/10/13 11:09:45;;;;;;;10.23;5.53;;;;;;;23.01;100.00;100382.06;5261686;28;20028;-74
2023/10/13 11:12:24;;;;;;;15.85;5.88;;;;;;;23.03;100.00;100366.63;5263317;28;20048;-75
2023/10/13 11:15:12;;;;;;;12.45;5.60;;;;;;;23.21;100.00;100351.59;5261665;28;20025;-73
2023/10/13 11:17:54;;;;;;;10.48;5.38;;;;;;;23.16;100.00;100344.28;5264015;28;20067;-75
2023/10/13 11:20:32;;;;;;;13.93;5.57;;;;;;;23.10;100.00;100347.03;5262167;28;20036;-75
2023/10/13 11:23:13;;;;;;;11.88;5.63;;;;;;;23.19;100.00;100340.34;5245327;28;20052;-75
2023/10/13 11:25:45;;;;;;;14.35;5.57;;;;;;;23.17;100.00;100332.53;5258036;28;20048;-75
2023/10/13 11:28:17;;;;;;;15.77;5.63;;;;;;;23.22;100.00;100330.03;5263780;28;20036;-75
2023/10/13 11:30:49;;;;;;;14.63;5.68;;;;;;;23.27;100.00;100314.13;5241792;28;20489;-75
2023/10/13 11:33:26;;;;;;;12.27;5.15;;;;;;;23.34;100.00;100300.66;5261693;28;20035;-75
2023/10/13 11:36:03;;;;;;;13.77;5.82;;;;;;;23.37;100.00;100300.19;5264689;28;20031;-76
2023/10/13 11:38:45;;;;;;;15.75;5.85;;;;;;;23.43;100.00;100314.50;5264234;28;20035;-75
2023/10/13 11:41:21;;;;;;;13.77;5.47;;;;;;;23.49;100.00;100297.56;5264203;28;20028;-74
2023/10/13 11:44:06;;;;;;;15.65;6.10;;;;;;;23.53;100.00;100290.72;5264150;28;20049;-74
2023/10/13 11:51:49;;;;;;;12.30;5.27;;;;;;;23.71;100.00;100282.63;5263857;28;20072;-75
2023/10/13 11:54:23;;;;;;;11.18;5.80;;;;;;;23.83;100.00;100288.03;5261735;28;20028;-73
2023/10/13 11:56:58;;;;;;;17.70;5.70;;;;;;;23.86;100.00;100284.84;5248151;28;21018;-75
2023/10/13 11:59:30;;;;;;;12.45;6.38;;;;;;;23.84;100.00;100278.13;5262055;28;20032;-75
2023/10/13 12:04:51;;;;;;;15.60;5.72;;;;;;;23.98;100.00;100264.31;5269298;28;20107;-75
2023/10/13 12:07:26;;;;;;;10.68;5.28;;;;;;;24.02;100.00;100262.78;5266547;28;20028;-75
2023/10/13 12:12:31;;;;;;;16.47;5.30;;;;;;;24.11;100.00;100267.78;5266600;28;20044;-75
2023/10/13 12:15:09;;;;;;;17.80;6.35;;;;;;;24.24;100.00;100251.47;5265628;28;20033;-75
2023/10/13 12:17:44;;;;;;;18.42;6.20;;;;;;;24.30;100.00;100253.22;5264384;28;20484;-75
2023/10/13 12:20:32;;;;;;;15.07;6.22;;;;;;;24.40;100.00;100249.97;5267481;28;20028;-75
2023/10/13 12:23:09;;;;;;;13.75;6.03;;;;;;;24.47;100.00;100261.34;5264511;28;20478;-75
2023/10/13 12:26:00;;;;;;;15.27;6.28;;;;;;;24.48;100.00;100247.75;5264110;28;20033;-74
2023/10/13 12:28:37;;;;;;;17.27;5.85;;;;;;;24.56;100.00;100257.28;5264568;28;20044;-75
2023/10/13 12:31:11;;;;;;;13.80;5.65;;;;;;;24.56;100.00;100254.59;5268907;28;20381;-75
2023/10/13 12:33:47;;;;;;;12.07;5.57;;;;;;;24.63;100.00;100257.16;5262384;28;20052;-75
2023/10/13 12:50:34;;;;;;;14.77;5.90;;;;;;;24.59;100.00;100239.94;5264395;28;20024;-75
2023/10/13 12:53:10;;;;;;;12.98;5.15;;;;;;;24.60;100.00;100250.41;5267157;28;20474;-74
2023/10/13 12:55:45;;;;;;;17.02;6.22;;;;;;;24.56;100.00;100243.88;5249205;28;20045;-75
2023/10/13 12:58:17;;;;;;;11.65;4.95;;;;;;;24.63;100.00;100230.38;5263184;28;20051;-75
2023/10/13 13:00:49;;;;;;;12.87;5.10;;;;;;;24.70;100.00;100237.22;5265715;28;20035;-76
2023/10/13 13:03:21;;;;;;;15.37;5.47;;;;;;;24.75;100.00;100234.63;5263550;28;20283;-75
2023/10/13 13:05:55;;;;;;;15.15;5.75;;;;;;;24.79;100.00;100242.19;5265080;28;20486;-75
2023/10/13 13:08:27;;;;;;;11.57;5.07;;;;;;;24.75;100.00;100248.00;5262432;28;20043;-75
2023/10/13 13:11:01;;;;;;;13.40;5.15;;;;;;;24.87;100.00;100239.94;5266080;28;20043;-76
2023/10/13 13:13:33;;;;;;;13.65;4.95;;;;;;;24.77;100.00;100234.38;5266364;28;20036;-76
2023/10/13 13:16:05;;;;;;;12.02;4.82;;;;;;;24.87;100.00;100241.81;5264727;28;20037;-75
2023/10/13 13:18:37;;;;;;;15.77;5.28;;;;;;;24.88;100.00;100225.47;5265740;28;20024;-75
2023/10/13 13:21:11;;;;;;;14.53;4.90;;;;;;;24.91;100.00;100242.94;5264419;28;20039;-74
2023/10/13 13:23:44;;;;;;;13.27;5.38;;;;;;;24.85;100.00;100227.81;5263334;28;20039;-75
2023/10/13 13:26:17;;;;;;;17.85;4.63;;;;;;;24.82;100.00;100223.78;5264421;28;20035;-75
2023/10/13 13:28:52;;;;;;;13.93;4.65;;;;;;;24.76;100.00;100228.22;5254442;28;20036;-74
2023/10/13 13:31:29;;;;;;;11.57;4.40;;;;;;;24.70;100.00;100223.81;5260923;28;20508;-75
2023/10/13 13:34:01;;;;;;;9.32;4.28;;;;;;;24.62;100.00;100226.84;5259331;28;20390;-74
2023/10/13 13:36:34;;;;;;;15.55;4.75;;;;;;;24.55;100.00;100225.34;5265057;28;20132;-75
2023/10/13 13:39:07;;;;;;;11.18;4.63;;;;;;;24.49;100.00;100230.63;5263458;28;20414;-75
2023/10/13 13:41:38;;;;;;;14.43;5.35;;;;;;;24.48;100.00;100220.97;5265129;28;20043;-75
2023/10/13 13:44:13;;;;;;;12.15;4.40;;;;;;;24.51;100.00;100231.22;5266387;28;20513;-75
2023/10/13 13:46:45;;;;;;;9.82;4.35;;;;;;;24.45;100.00;100226.78;5254922;28;20032;-74
2023/10/13 13:49:28;;;;;;;18.63;4.35;;;;;;;24.40;100.00;100226.69;5260107;28;20033;-76
2023/10/13 13:52:04;;;;;;;11.27;4.20;;;;;;;24.34;100.00;100221.44;5258392;28;20032;-75
2023/10/13 13:54:40;;;;;;;18.30;4.97;;;;;;;24.31;100.00;100219.22;5258888;28;20033;-73
2023/10/13 13:57:13;;;;;;;11.05;4.50;;;;;;;24.47;100.00;100219.34;5255604;28;20041;-74
2023/10/13 13:59:45;;;;;;;12.13;4.72;;;;;;;24.48;100.00;100212.94;5235880;28;20047;-74
2023/10/13 14:02:19;;;;;;;15.95;4.95;;;;;;;24.47;100.00;100210.47;5252703;28;20032;-75
2023/10/13 14:04:52;;;;;;;14.45;4.57;;;;;;;24.50;100.00;100208.13;5254708;28;20041;-75
2023/10/13 14:07:24;;;;;;;;;;;;;;;25.28;100.00;100205.84;5252598;28;20203;-75
2023/10/13 14:10:06;;;;;;;10.70;4.90;;;;;;;24.52;100.00;100211.41;5258137;28;20301;-75
2023/10/13 14:12:41;;;;;;;12.35;4.53;;;;;;;24.50;100.00;100210.81;5257045;28;20036;-75
2023/10/13 14:15:23;;;;;;;14.57;4.60;;;;;;;24.49;100.00;100213.75;5257150;28;20029;-75
2023/10/13 14:17:55;;;;;;;13.15;5.00;;;;;;;24.45;100.00;100223.31;5254709;28;20033;-75
2023/10/13 14:20:27;;;;;;;10.60;4.83;;;;;;;24.46;100.00;100214.22;5258017;28;20028;-75
2023/10/13 14:22:59;;;;;;;9.83;4.83;;;;;;;24.50;100.00;100218.84;5258244;28;20306;-75
2023/10/13 14:25:37;;;;;;;12.95;5.43;;;;;;;24.58;100.00;100219.53;5255388;28;20036;-75
2023/10/13 14:28:11;;;;;;;15.05;4.63;;;;;;;24.50;100.00;100210.81;5254877;28;20462;-74
2023/10/13 14:30:43;;;;;;;14.35;4.88;;;;;;;24.49;100.00;100216.41;5253001;28;20028;-75
2023/10/13 14:33:15;;;;;;;15.07;5.45;;;;;;;24.54;100.00;100218.38;5257512;28;20441;-75
2023/10/13 14:35:47;;;;;;;10.83;4.40;;;;;;;24.47;100.00;100222.03;5258363;28;20039;-74
2023/10/13 14:38:18;;;;;;;17.52;5.10;;;;;;;24.50;100.00;100218.03;5257579;28;20764;-75
2023/10/13 14:40:58;;;;;;;13.15;4.40;;;;;;;24.60;100.00;100217.44;5256997;28;20032;-75
2023/10/13 14:43:30;;;;;;;11.45;4.47;;;;;;;24.47;100.00;100223.88;5255696;28;20056;-75
2023/10/13 14:46:07;;;;;;;13.65;4.35;;;;;;;24.45;100.00;100216.09;5254815;28;20029;-74